This is the latest recevied weather packets stored in our database for station/object N4CRH-13. If no packets are shown the sender has not sent any weather packets the latest 10 day(s).
| Time | Temp. | Humidity | Pressure | Rain* | Wind** | Luminosity | Snow |
|---|---|---|---|---|---|---|---|
| 1778278841 | 19.44° C | 38% | 1293.4 hPa | 0 mm | - | 415 W/m² | - |
| 1778278537 | 18.33° C | 39% | 1293.2 hPa | 0 mm | - | 407 W/m² | - |
| 1778278233 | 18.89° C | 43% | 1293.4 hPa | 0 mm | - | 444 W/m² | - |
| 1778277930 | 18.33° C | 41% | 1293.4 hPa | 0 mm | - | 459 W/m² | - |
| 1778277626 | 18.89° C | 41% | 1293.5 hPa | 0 mm | - | 481 W/m² | - |
| 1778277323 | 18.89° C | 40% | 1293.4 hPa | 0 mm | - | 490 W/m² | - |
| 1778277020 | 18.89° C | 39% | 1293.5 hPa | 0 mm | - | 501 W/m² | - |
| 1778276718 | 19.44° C | 39% | 1293.4 hPa | 0 mm | - | 508 W/m² | - |
| 1778276414 | 18.89° C | 43% | 1293.4 hPa | 0 mm | - | 521 W/m² | - |
| 1778276111 | 18.89° C | 41% | 1293.7 hPa | 0 mm | - | 533 W/m² | - |
| 1778275807 | 18.33° C | 41% | 1293.4 hPa | 0 mm | - | 548 W/m² | - |
| 1778275503 | 18.89° C | 38% | 1293.6 hPa | 0 mm | - | 558 W/m² | - |
| 1778275199 | 17.78° C | 41% | 1293.6 hPa | 0 mm | - | 575 W/m² | - |
| 1778274895 | 18.89° C | 41% | 1294 hPa | 0 mm | - | 582 W/m² | - |
| 1778274592 | 17.78° C | 45% | 1293.7 hPa | 0 mm | - | 615 W/m² | - |
| 1778274288 | 17.78° C | 42% | 1293.9 hPa | 0 mm | - | 625 W/m² | - |
| 1778273985 | 18.33° C | 39% | 1293.9 hPa | 0 mm | - | 357 W/m² | - |
| 1778273682 | 17.78° C | 40% | 1293.9 hPa | 0 mm | - | 628 W/m² | - |
| 1778273378 | 17.78° C | 40% | 1294 hPa | 0 mm | - | 638 W/m² | - |
| 1778273076 | 17.78° C | 39% | 1294.1 hPa | 0 mm | - | 642 W/m² | - |
| 1778272771 | 17.78° C | 41% | 1294.1 hPa | 0 mm | - | 654 W/m² | - |
| 1778272468 | 16.67° C | 41% | 1294.1 hPa | 0 mm | - | 663 W/m² | - |
| 1778272163 | 16.67° C | 43% | 1294 hPa | 0 mm | - | 641 W/m² | - |
| 1778271861 | 17.22° C | 44% | 1294.1 hPa | 0 mm | - | 680 W/m² | - |
| 1778271558 | 17.22° C | 40% | 1294.2 hPa | 0 mm | - | 683 W/m² | - |
* Rain latest hour (hover to see other rain measurements)
** Current wind speed in m/s (hover to see current wind gust speed)